Free Trial

Tejon Ranch (TRC) Institutional Ownership

$17.92
+0.05 (+0.28%)
(As of 09:57 AM ET)

Institutional Ownership Changes (13F Filings) for Tejon Ranch (NYSE:TRC)

Current
Institutional Ownership
Percentage
60.63%
Number of
Institutional Buyers
(last 12 months)
27
Total
Institutional Inflows
(last 12 months)
$6.93M
Number of
Institutional Sellers
(last 12 months)
20
Total
Institutional Outflows
(last 12 months)
$5.18M
Get TRC Insider Trade Alerts

Want to know when executives and insiders are buying or selling Tejon Ranch stock? Sign up for InsiderTrades.com's daily newsletter to get the latest insider transactions delivered to your inbox daily.

Skip Chart & View Institutional Buying and Selling Data

TRC Institutional Buying and Selling by Quarter

Tejon Ranch Major Shareholders & Ownership History

Reporting DateMajor Shareholder NameShares HeldMarket Value% of PortfolioQuarterly Change in SharesOwnership in CompanyDetails
5/16/2024 California State Teachers Retirement System21,247$327K0.0%-5.3%0.079%
5/15/2024 Price T Rowe Associates Inc. MD49,379$761K0.0%-2.4%0.184%
5/15/2024 Gabelli Funds LLC142,200$2.19M0.0%+1.4%0.531%
5/15/2024 Gamco Investors INC. ET AL667,822$10.29M0.1%+1.7%2.492%
5/14/2024 EntryPoint Capital LLC14,740$227K0.2%+286.1%0.055%
5/14/2024 CM Management LLC45,000$693K0.6%+12.5%0.168%
5/14/2024 CANADA LIFE ASSURANCE Co15,939$246K0.0%+1,141.4%0.059%
5/10/2024 Vanguard Group Inc.1,123,193$17.31M0.0%-5.4%4.191%
5/9/2024 State Board of Administration of Florida Retirement System22,305$344K0.0%N/A0.083%
5/7/2024 SG Americas Securities LLC8,079$124K0.0%-37.4%0.030%
5/2/2024 Quent Capital LLC2,393$37K0.0%N/A0.009%
5/1/2024 BNP Paribas Financial Markets10,216$157K0.0%+65.7%0.038%
4/22/2024 Accordant Advisory Group Inc29,970$462K0.3%N/A0.112%
4/19/2024 Mad River Investors89,900$1.39M1.0%-8.1%0.335%
4/11/2024 Foundation Resource Management Inc.482,773$7.44M1.2%+1.4%1.801%
2/13/2024 Teton Advisors Inc.94,000$1.62M0.5%-1.6%0.352%
2/8/2024 Oppenheimer & Close LLC128,981$2.22M2.0%+8.4%0.483%
2/7/2024 Dimensional Fund Advisors LP1,636,448$28.15M0.0%+2.6%6.122%
2/6/2024Alan B Lancz & Associates Inc.12,258$211K0.2%-7.5%0.046%
2/6/2024 Swiss National Bank42,180$725K0.0%-10.2%0.158%
2/1/2024 New York State Common Retirement Fund7,885$136K0.0%-22.5%0.029%
2/1/2024 CWM LLC1,579$27K0.0%+125.9%0.006%
1/26/2024 Mad River Investors97,825$1.68M1.6%-54.2%0.366%
1/26/2024 Reik & CO. LLC46,879$806K0.2%-19.6%0.175%
1/18/2024 Blue Trust Inc.3,229$52K0.0%N/A0.012%
1/17/2024 Assenagon Asset Management S.A.40,468$696K0.0%+72.7%0.151%
1/12/2024 SG Americas Securities LLC12,913$222K0.0%+35.8%0.048%
1/10/2024 Foundation Resource Management Inc.476,153$8.19M1.3%+1.1%1.781%
12/18/2023 Vanguard Group Inc.1,141,947$18.52M0.0%+1.6%4.272%
11/14/2023 Oppenheimer & Close LLC118,981$1.93M1.9%+47.8%0.445%
11/13/2023 Covestor Ltd14,591$236K0.2%-17.7%0.055%
11/13/2023 Brandywine Global Investment Management LLC86,822$1.41M0.0%+11.5%0.325%
11/13/2023 WINTON GROUP Ltd22,732$369K0.0%N/A0.085%
11/8/2023 Campbell & CO Investment Adviser LLC15,094$245K0.0%+15.7%0.056%
11/8/2023 Gabelli Funds LLC140,200$2.27M0.0%-4.4%0.525%
11/8/2023 Gamco Investors INC. ET AL645,130$10.46M0.1%+0.3%2.414%
11/8/2023 Teton Advisors Inc.95,500$1.55M0.5%-2.6%0.357%
11/8/2023 Swiss National Bank46,980$762K0.0%+2.6%0.176%
11/7/2023 New York State Common Retirement Fund10,173$165K0.0%+89.6%0.038%
11/4/2023 NBC Securities Inc.2,428$39K0.0%N/A0.009%
Red Alert: Your Money's Disappearance Act - Banks' Greed Unleashed! (Ad)

Get your free information kit NOW, before it’s too late. Inside you’ll get the 3 secret strategies you can put in place starting today, so “they” don’t get your money tomorrow.

Click here for your free guide
11/4/2023 Towerview LLC3,845,500$62.37M41.5%+0.3%14.386%
10/31/2023 Levin Capital Strategies L.P.71,441$1.16M0.1%+36.3%0.267%
10/27/2023Lee Danner & Bass Inc.49,150$797K0.1%-4.6%0.184%
10/24/2023 Bank of New York Mellon Corp337,205$5.47M0.0%+0.3%1.262%
10/18/2023 Mad River Investors213,425$3.46M2.5%-2.4%0.798%
10/13/2023 SG Americas Securities LLC9,512$154K0.0%N/A0.036%
10/10/2023 Foundation Resource Management Inc.470,888$7.64M1.3%-0.5%1.762%
9/21/2023 Barclays PLC8,073$139K0.0%-23.8%0.030%
8/14/2023 Price Jennifer C.355,645$6.12M2.1%-5.8%1.331%
8/14/2023 Horizon Kinetics Asset Management LLC1,174,063$20.21M0.4%+1.7%4.392%
8/11/2023 Cibc World Market Inc.107,200$1.85M0.0%-10.5%0.401%
8/11/2023 Campbell & CO Investment Adviser LLC13,044$224K0.0%-17.1%0.049%
8/11/2023 Brandywine Global Investment Management LLC77,892$1.34M0.0%+6.0%0.291%
8/9/2023 Dimensional Fund Advisors LP1,556,095$26.78M0.0%+0.3%5.822%
8/4/2023 CM Management LLC40,000$688K0.7%-33.3%0.150%
8/3/2023 Towerview LLC3,832,827$65.96M43.1%+0.2%14.350%
8/3/2023 Mad River Investors218,725$3.85M2.8%-5.2%0.819%
7/25/2023 Assenagon Asset Management S.A.23,572$406K0.0%+78.3%0.088%
7/19/2023 Teacher Retirement System of Texas12,764$220K0.0%-7.6%0.048%
7/12/2023 Foundation Resource Management Inc.473,159$8.14M1.4%+4.3%1.771%
6/14/2023 State Board of Administration of Florida Retirement System22,305$408K0.0%+20.7%0.084%
5/25/2023 Brandywine Global Investment Management LLC73,502$1.34M0.0%+36.8%0.275%
5/12/2023 Price Jennifer C.377,500$6.90M2.2%-2.0%1.413%
5/12/2023 Brandywine Global Investment Management LLC73,502$1.34M0.0%+36.8%0.275%
5/8/2023 CM Management LLC60,000$1.10M1.3%-7.7%0.225%
5/5/2023 Towerview LLC3,826,329$69.91M45.4%+0.3%14.325%
5/4/2023 Mad River Investors230,725$4.22M3.0%-2.8%0.864%
5/2/2023 Acuitas Investments LLC247,802$4.53M4.7%-7.9%0.928%
4/24/2023 Levin Capital Strategies L.P.52,421$958K0.1%+8.3%0.196%
4/18/2023 Assenagon Asset Management S.A.13,223$242K0.0%N/A0.050%
4/11/2023 Foundation Resource Management Inc.453,535$8.29M1.4%+4.4%1.698%
2/13/2023 Neuberger Berman Group LLC142,835$2.69M0.0%-4.4%0.539%
2/13/2023 Levin Capital Strategies L.P.48,421$912K0.1%-9.6%0.183%
2/13/2023 CIBC Private Wealth Group LLC14,624$953K0.0%-3.9%0.055%
2/10/2023 Brandywine Global Investment Management LLC53,722$1.01M0.0%+191.8%0.203%
2/9/2023 Dimensional Fund Advisors LP1,510,181$28.45M0.0%+2.6%5.699%
2/9/2023 Horizon Kinetics Asset Management LLC1,010,038$19.03M0.3%+2.4%3.811%
2/8/2023 UBS Group AG8,162$154K0.0%+3,714.0%0.031%
2/8/2023 Swiss National Bank51,180$964K0.0%+2.6%0.193%
2/7/2023 State Board of Administration of Florida Retirement System18,474$348K0.0%-27.1%0.070%
2/7/2023 Horizon Kinetics Asset Management LLC1,010,038$19.03M0.3%+2.4%3.811%
2/6/2023 Acuitas Investments LLC269,157$5.07M5.1%-15.4%1.016%
2/6/2023 Mad River Investors237,325$4.47M2.6%-0.5%0.896%
1/26/2023 Strs Ohio4,400$82K0.0%-13.7%0.017%
1/12/2023 Foundation Resource Management Inc.434,272$8.18M1.4%+0.4%1.639%
11/16/2022 Horizon Kinetics Asset Management LLC986,573$14.21M0.3%+29.8%3.723%
11/15/2022 Santa Monica Partners LP175,701$2.53M1.9%+1.2%0.663%
11/15/2022 London Co. of Virginia53,174$766K0.0%-75.3%0.201%
11/15/2022 First Manhattan Co.10,700$154K0.0%+12.6%0.040%
11/14/2022 Teton Advisors Inc.98,000$1.41M0.3%-2.0%0.370%
Does this make you sick? (Ad)

The US Dollar Is "Finished" A deteriorating economy, global instability, and a weakened banking system have pushed the U.S. financial system to the brink, imperiling the value of your savings and investments.

Get your Free Wealth Protection Kit
11/14/2022 Gabelli Funds LLC146,600$2.11M0.0%-2.3%0.553%
11/14/2022 Renaissance Technologies LLC493,048$7.10M0.0%-18.6%1.861%
11/10/2022 Gabelli Funds LLC146,600$2.11M0.0%-2.3%0.553%
11/10/2022 Gamco Investors INC. ET AL627,324$9.03M0.1%+1.2%2.367%
11/10/2022 Teton Advisors Inc.98,000$1.41M0.3%-2.0%0.370%
11/10/2022 Dimensional Fund Advisors LP1,471,238$21.19M0.0%+2.0%5.554%
11/3/2022 Teacher Retirement System of Texas14,462$208K0.0%N/A0.055%
11/2/2022 Acuitas Investments LLC318,052$4.58M4.7%-6.8%1.201%
10/26/2022 Mad River Investors238,525$3.44M2.5%-3.6%0.900%
10/26/2022Wipfli Financial Advisors LLC2,292$33K0.0%N/A0.009%
(Data available from 1/1/2016 forward)

TRC Institutional Ownership - Frequently Asked Questions

Who are the largest shareholders of TRC shares?

During the previous two years, 51 institutional investors and hedge funds held shares of Tejon Ranch. The most heavily invested institutionals were Towerview LLC ($62.37M), Dimensional Fund Advisors LP ($28.15M), Horizon Kinetics Asset Management LLC ($20.21M), Vanguard Group Inc. ($17.31M), Gamco Investors INC. ET AL ($10.29M), Foundation Resource Management Inc. ($7.44M), and Renaissance Technologies LLC ($7.10M).Learn more on TRC's institutional investors.

What percentage of Tejon Ranch stock is owned by institutional investors?

60.63% of Tejon Ranch stock is owned by institutional investors. Learn more on TRC's institutional investor holdings.

Which institutional investors have been buying Tejon Ranch stock?

Of the 34 institutional investors that purchased Tejon Ranch stock in the last 24 months, the following investors and hedge funds have bought the highest volume of shares: Horizon Kinetics Asset Management LLC ($292.97K), Dimensional Fund Advisors LP ($113.54K), Brandywine Global Investment Management LLC ($88.19K), Foundation Resource Management Inc. ($59.67K), Oppenheimer & Close LLC ($48.46K), Assenagon Asset Management S.A. ($40.61K), and Gamco Investors INC. ET AL ($38.66K).

How much institutional buying is happening at Tejon Ranch?

Institutional investors have bought a total of 976,765 shares in the last 24 months. This purchase volume represents approximately $15.86M in transactions.

Which Tejon Ranch major shareholders have been selling company stock?

Of the 30 institutional investors that sold Tejon Ranch stock in the last 24 months, the following investors and hedge funds have sold the highest volume of shares: London Co. of Virginia ($167.65K), Mad River Investors ($158.83K), Renaissance Technologies LLC ($112.50K), Acuitas Investments LLC ($93.40K), Vanguard Group Inc. ($64.43K), Horizon Kinetics Asset Management LLC ($47.72K), and Price Jennifer C. ($29.56K).

How much institutional selling is happening at Tejon Ranch?

Institutional investors have sold a total of 808,851 shares in the last 24 months. This volume of shares sold represents approximately $12.90M in transactions.


This page (NYSE:TRC) was last updated on 5/21/2024 by MarketBeat.com Staff

From Our Partners